Muson — UGLB — position and weather

sailwx.info

Track history (hours):
 
Tides and Currents Weather Stations Pressure Air Temp Water Temp Dewpoint Dewpoint Depression Visibility Wind Speed Wind Dir Waves Ship Positions

Muson

Last reported at 2016-May-24 07:33 UTC. Time now 2016-May-24 08:05 UTC.
Position N 59°56' E 029°42'.

Length 36 m; draft 4.5 m.

Type: Tug. MMSI: 273444990.

Date/timePositionNaut miles runAvg speedWind from/ knotsBaromVisibWave heightAir tempDewpointWater temp
2016-May-24 07:33N 59°56' E 029°42'0 0.1
2016-May-24 06:32N 59°56' E 029°42'0 0.3
2016-May-24 05:30N 59°56' E 029°42'1 0.6
2016-May-24 04:33N 59°56' E 029°41'0 0.1
2016-May-24 03:30N 59°56' E 029°41'0 0.0
2016-May-24 02:33N 59°56' E 029°41'1 0.6
2016-May-24 01:33N 59°56' E 029°42'0 0.0
2016-May-24 00:33N 59°56' E 029°42'0 0.0
2016-May-23 23:33N 59°56' E 029°42'0 0.0
2016-May-23 22:33N 59°56' E 029°42'0 0.0
2016-May-23 21:33N 59°56' E 029°42'0 0.0
2016-May-23 20:33N 59°56' E 029°42'0 0.0
2016-May-23 19:33N 59°56' E 029°42'0 0.0
2016-May-23 18:33N 59°56' E 029°42'0 0.0
2016-May-23 17:33N 59°56' E 029°42'0 0.0
2016-May-23 16:33N 59°56' E 029°42'0 0.0
2016-May-23 15:33N 59°56' E 029°42'0 0.0
2016-May-23 14:33N 59°56' E 029°42'2 1.5
2016-May-23 13:06N 59°58' E 029°45'1 1.1
2016-May-23 12:33N 59°59' E 029°44'0 0.0
2016-May-23 11:33N 59°59' E 029°44'0 0.1
2016-May-23 10:30N 59°59' E 029°45'0 0.2
2016-May-23 09:33N 59°59' E 029°44'0 0.1
2016-May-23 08:33N 59°59' E 029°44'0 0.1
2016-May-23 07:29N 59°59' E 029°45'0 0.1
2016-May-23 06:33N 59°58' E 029°45'0 0.1
2016-May-23 05:33N 59°59' E 029°44'0 0.1
2016-May-23 04:34N 59°59' E 029°44'0 0.1
2016-May-23 03:29N 59°59' E 029°45'1 1.3
2016-May-23 02:33N 59°57' E 029°44'2 1.5
2016-May-23 01:33N 59°56' E 029°42'0 0.0
2016-May-23 00:33N 59°56' E 029°42'0 0.0
2016-May-22 23:33N 59°56' E 029°42'0 0.0
2016-May-22 22:32N 59°56' E 029°42'0 0.0
2016-May-22 21:33N 59°56' E 029°42'0 0.0
2016-May-22 20:33N 59°56' E 029°42'0 0.0
2016-May-22 19:33N 59°56' E 029°42'0 0.0
2016-May-22 18:34N 59°56' E 029°42'0 0.0
2016-May-22 17:33N 59°56' E 029°42'0 0.0
2016-May-22 16:33N 59°56' E 029°42'0 0.0
2016-May-22 15:33N 59°56' E 029°42'3 1.3
2016-May-22 13:33N 59°59' E 029°45'0 0.1
2016-May-22 12:33N 59°58' E 029°45'0 0.1
2016-May-22 11:32N 59°59' E 029°45'0 0.1
2016-May-22 10:33N 59°58' E 029°44'0 0.1
2016-May-22 09:30N 59°59' E 029°45'0 0.1
2016-May-22 08:33N 59°59' E 029°44'0 0.1
2016-May-22 07:33N 59°58' E 029°45'0 0.0
2016-May-22 06:33N 59°59' E 029°45'0 0.0
2016-May-22 05:28N 59°59' E 029°45'0 0.1
2016-May-22 04:22N 59°59' E 029°45'2 2.2
2016-May-22 03:33N 59°57' E 029°44'1 1.0
2016-May-22 02:33N 59°56' E 029°42'0 0.0
2016-May-22 01:33N 59°56' E 029°42'0 0.0
2016-May-22 00:33N 59°56' E 029°42'0 0.0
2016-May-21 23:33N 59°56' E 029°42'0 0.0
2016-May-21 22:33N 59°56' E 029°42'0 0.0
2016-May-21 21:33N 59°56' E 029°42'0 0.0
2016-May-21 20:33N 59°56' E 029°42'0 0.0
2016-May-21 19:33N 59°56' E 029°42'0 0.0
2016-May-21 18:33N 59°56' E 029°42'0 0.0
2016-May-21 17:33N 59°56' E 029°42'0 0.0
2016-May-21 16:33N 59°56' E 029°42'0 0.0
2016-May-21 15:33N 59°56' E 029°42'2 1.6
2016-May-21 14:18N 59°58' E 029°45'1 1.0
2016-May-21 13:33N 59°59' E 029°45'0 0.1
2016-May-21 12:33N 59°59' E 029°44'0 0.1
2016-May-21 11:33N 59°58' E 029°45'0 0.1
2016-May-21 10:19N 59°59' E 029°45'0 0.0
2016-May-21 09:20N 59°59' E 029°45'0 0.2
2016-May-21 08:24N 59°58' E 029°45'0 0.2
2016-May-21 07:33N 59°59' E 029°44'0 0.1
2016-May-21 06:31N 59°59' E 029°45'0 0.1
2016-May-21 05:31N 59°59' E 029°44'0 0.0
2016-May-21 04:25N 59°59' E 029°44'3 1.3
2016-May-21 02:25N 59°56' E 029°42'0 0.0
2016-May-21 01:33N 59°56' E 029°42'0 0.0
2016-May-21 00:33N 59°56' E 029°42'0 0.0
2016-May-20 23:33N 59°56' E 029°42'0 0.0
2016-May-20 22:33N 59°56' E 029°42'0 0.0
2016-May-20 21:33N 59°56' E 029°42'0 0.0
2016-May-20 20:33N 59°56' E 029°42'0 0.0
2016-May-20 19:33N 59°56' E 029°42'0 0.0
2016-May-20 18:33N 59°56' E 029°42'0 0.0
2016-May-20 17:33N 59°56' E 029°42'0 0.0
2016-May-20 16:33N 59°56' E 029°42'0 0.0
2016-May-20 15:33N 59°56' E 029°42'2 1.6
2016-May-20 14:15N 59°58' E 029°45'1 0.9
2016-May-20 13:26N 59°59' E 029°44'0 0.2
2016-May-20 12:33N 59°58' E 029°45'0 0.0
2016-May-20 11:33N 59°58' E 029°45'0 0.1
2016-May-20 10:33N 59°58' E 029°45'0 0.1
2016-May-20 09:32N 59°59' E 029°44'0 0.0
2016-May-20 08:27N 59°59' E 029°45'0 0.1
2016-May-20 07:29N 59°59' E 029°44'0 0.1
2016-May-20 06:33N 59°58' E 029°45'0 0.1
2016-May-20 05:29N 59°59' E 029°45'0 0.1
2016-May-20 04:33N 59°59' E 029°44'2 1.8
2016-May-20 03:33N 59°57' E 029°44'1 0.8
2016-May-20 02:34N 59°56' E 029°42'0 0.0
2016-May-20 01:33N 59°56' E 029°42'0 0.0
2016-May-20 00:33N 59°56' E 029°42'0 0.0
2016-May-19 23:33N 59°56' E 029°42'0 0.0
2016-May-19 22:33N 59°56' E 029°42'0 0.0
2016-May-19 21:33N 59°56' E 029°42'0 0.0
2016-May-19 20:33N 59°56' E 029°42'0 0.0
2016-May-19 19:33N 59°56' E 029°42'0 0.0
2016-May-19 18:33N 59°56' E 029°42'0 0.0
2016-May-19 17:33N 59°56' E 029°42'0 0.0
2016-May-19 16:33N 59°56' E 029°42'0 0.0
2016-May-19 15:33N 59°56' E 029°42'3 1.3
2016-May-19 13:29N 59°59' E 029°44'0 0.1
2016-May-19 12:31N 59°59' E 029°44'0 0.1
2016-May-19 11:23N 59°59' E 029°44'0 0.1
2016-May-19 10:33N 59°59' E 029°44'0 0.1
2016-May-19 09:33N 59°58' E 029°45'0 0.2
2016-May-19 08:19N 59°59' E 029°45'0 0.0
2016-May-19 06:06N 59°59' E 029°45'0 0.1
2016-May-19 04:32N 59°59' E 029°44'2 1.5
2016-May-19 03:33N 59°57' E 029°44'1 1.1
2016-May-19 02:33N 59°56' E 029°42'0 0.0
2016-May-19 01:33N 59°56' E 029°42'0 0.0
2016-May-19 00:33N 59°56' E 029°42'0 0.0
2016-May-18 23:33N 59°56' E 029°42'0 0.0
2016-May-18 22:32N 59°56' E 029°42'0 0.0
2016-May-18 21:33N 59°56' E 029°42'3 1.3
2016-May-18 19:33N 59°59' E 029°44'1 0.4
2016-May-18 18:16N 59°59' E 029°43'0 0.0
2016-May-18 17:33N 59°59' E 029°43'2 2.0
2016-May-18 16:33N 59°57' E 029°44'1 1.1
2016-May-18 15:33N 59°56' E 029°42'2 1.2
2016-May-18 13:33N 59°58' E 029°45'0 0.1
2016-May-18 12:32N 59°59' E 029°45'0 0.1
2016-May-18 11:33N 59°59' E 029°44'0 0.0
2016-May-18 10:33N 59°59' E 029°45'0 0.0
2016-May-18 09:33N 59°59' E 029°45'0 0.1
2016-May-18 08:29N 59°59' E 029°45'0 0.1
2016-May-18 07:31N 59°59' E 029°44'0 0.1
2016-May-18 06:33N 59°59' E 029°44'0 0.1
2016-May-18 05:33N 59°58' E 029°45'0 0.0
2016-May-18 04:32N 59°58' E 029°45'1 1.5
2016-May-18 03:33N 59°57' E 029°44'1 1.2
2016-May-18 02:32N 59°56' E 029°42'0 0.0
2016-May-18 01:33N 59°56' E 029°42'0 0.0
2016-May-18 00:33N 59°56' E 029°42'0 0.0
2016-May-17 23:33N 59°56' E 029°42'0 0.0
2016-May-17 22:33N 59°56' E 029°42'0 0.0
2016-May-17 21:33N 59°56' E 029°42'0 0.0
2016-May-17 20:33N 59°56' E 029°42'0 0.0
2016-May-17 19:32N 59°56' E 029°42'0 0.0
2016-May-17 18:33N 59°56' E 029°42'0 0.0
2016-May-17 17:33N 59°56' E 029°42'0 0.0
2016-May-17 16:33N 59°56' E 029°42'0 0.0
2016-May-17 15:33N 59°56' E 029°42'2 1.3
2016-May-17 14:04N 59°58' E 029°45'1 1.4
2016-May-17 13:30N 59°59' E 029°44'0 0.0
2016-May-17 12:21N 59°59' E 029°45'0 0.1
2016-May-17 11:29N 59°59' E 029°44'0 0.0
2016-May-17 10:33N 59°59' E 029°45'0 0.1
2016-May-17 09:33N 59°59' E 029°45'0 0.1
2016-May-17 08:21N 59°59' E 029°44'0 0.1
2016-May-17 07:33N 59°59' E 029°45'0 0.0
2016-May-17 06:33N 59°59' E 029°45'0 0.1
2016-May-17 05:30N 59°58' E 029°45'0 0.2
2016-May-17 04:26N 59°59' E 029°44'2 2.0
2016-May-17 03:33N 59°57' E 029°44'1 0.9
2016-May-17 02:31N 59°56' E 029°42'0 0.0
2016-May-17 01:33N 59°56' E 029°42'0 0.0
2016-May-17 00:32N 59°56' E 029°42'0 0.0
2016-May-16 23:32N 59°56' E 029°42'0 0.0
2016-May-16 22:33N 59°56' E 029°42'0 0.0
2016-May-16 21:33N 59°56' E 029°42'0 0.0
2016-May-16 20:33N 59°56' E 029°42'0 0.0
2016-May-16 19:33N 59°56' E 029°42'0 0.0
2016-May-16 18:32N 59°56' E 029°42'0 0.0
2016-May-16 17:33N 59°56' E 029°42'0 0.0
2016-May-16 16:33N 59°56' E 029°42'0 0.0
2016-May-16 15:33N 59°56' E 029°42'0 0.0
2016-May-16 14:33N 59°56' E 029°42'2 1.4
2016-May-16 13:03N 59°58' E 029°45'0 1.0
2016-May-16 12:33N 59°58' E 029°45'0 0.0
2016-May-16 11:32N 59°58' E 029°45'0 0.0
2016-May-16 09:33N 59°58' E 029°45'0 0.1
2016-May-16 08:29N 59°59' E 029°44'0 0.1
2016-May-16 07:22N 59°59' E 029°45'0 0.1
2016-May-16 06:33N 59°59' E 029°44'0 0.0
2016-May-16 05:33N 59°59' E 029°44'0 0.1
2016-May-16 04:29N 59°59' E 029°45'0 0.1
2016-May-16 03:31N 59°58' E 029°45'1 1.2
2016-May-16 02:33N 59°57' E 029°44'1 1.3
2016-May-16 01:32N 59°56' E 029°42'0 0.0
2016-May-16 00:33N 59°56' E 029°42'0 0.0
2016-May-15 23:33N 59°56' E 029°42'0 0.0
2016-May-15 22:33N 59°56' E 029°42'0 0.0
2016-May-15 21:31N 59°56' E 029°42'0 0.0
2016-May-15 20:33N 59°56' E 029°42'0 0.0
2016-May-15 19:33N 59°56' E 029°42'0 0.0
2016-May-15 18:29N 59°56' E 029°42'0 0.0
2016-May-15 17:33N 59°56' E 029°42'0 0.0
2016-May-15 16:32N 59°56' E 029°42'0 0.0
2016-May-15 15:33N 59°56' E 029°42'0 0.0
2016-May-15 14:33N 59°56' E 029°42'2 1.5
2016-May-15 13:15N 59°58' E 029°45'1 1.2
2016-May-15 12:31N 59°59' E 029°45'0 0.1
2016-May-15 11:31N 59°59' E 029°44'0 0.2
2016-May-15 10:33N 59°59' E 029°45'0 0.3
2016-May-15 09:30N 59°59' E 029°44'0 0.3
2016-May-15 08:33N 59°59' E 029°44'0 0.1
2016-May-15 07:33N 59°58' E 029°45'0 0.0
2016-May-15 06:33N 59°58' E 029°45'0 0.1
2016-May-15 05:33N 59°59' E 029°45'0 0.0
2016-May-15 04:32N 59°59' E 029°44'0 0.0
2016-May-15 03:30N 59°59' E 029°44'1 1.5
2016-May-15 02:33N 59°57' E 029°44'1 1.3
2016-May-15 01:33N 59°56' E 029°42'0 0.0
2016-May-15 00:33N 59°56' E 029°42'0 0.0
2016-May-14 23:33N 59°56' E 029°42'0 0.0
2016-May-14 22:33N 59°56' E 029°42'0 0.0
2016-May-14 21:33N 59°56' E 029°42'0 0.0
2016-May-14 20:33N 59°56' E 029°42'0 0.0
2016-May-14 19:33N 59°56' E 029°42'0 0.0
2016-May-14 18:33N 59°56' E 029°42'0 0.0
2016-May-14 17:33N 59°56' E 029°42'0 0.0
2016-May-14 16:33N 59°56' E 029°42'0 0.0
2016-May-14 15:32N 59°56' E 029°42'0 0.0
2016-May-14 14:32N 59°56' E 029°42'3 1.3
2016-May-14 12:33N 59°59' E 029°45'0 0.1
2016-May-14 11:33N 59°59' E 029°45'0 0.0
2016-May-14 10:33N 59°59' E 029°44'0 0.1
2016-May-14 09:19N 59°58' E 029°45'0 0.1
2016-May-14 08:21N 59°59' E 029°45'  
Track history (hours):
 
Tides and Currents Weather Stations Pressure Air Temp Water Temp Dewpoint Dewpoint Depression Visibility Wind Speed Wind Dir Waves Ship Positions

Muson

Last reported at 2016-May-24 07:33 UTC. Time now 2016-May-24 08:05 UTC.
Position N 59°56' E 029°42'.

Length 36 m; draft 4.5 m.

Type: Tug. MMSI: 273444990.

Date/timePositionNaut miles runAvg speedWind from/ knotsBaromVisibWave heightAir tempDewpointWater temp
2016-May-24 07:33N 59°56' E 029°42'0 0.1
2016-May-24 06:32N 59°56' E 029°42'0 0.3
2016-May-24 05:30N 59°56' E 029°42'1 0.6
2016-May-24 04:33N 59°56' E 029°41'0 0.1
2016-May-24 03:30N 59°56' E 029°41'0 0.0
2016-May-24 02:33N 59°56' E 029°41'1 0.6
2016-May-24 01:33N 59°56' E 029°42'0 0.0
2016-May-24 00:33N 59°56' E 029°42'0 0.0
2016-May-23 23:33N 59°56' E 029°42'0 0.0
2016-May-23 22:33N 59°56' E 029°42'0 0.0
2016-May-23 21:33N 59°56' E 029°42'0 0.0
2016-May-23 20:33N 59°56' E 029°42'0 0.0
2016-May-23 19:33N 59°56' E 029°42'0 0.0
2016-May-23 18:33N 59°56' E 029°42'0 0.0
2016-May-23 17:33N 59°56' E 029°42'0 0.0
2016-May-23 16:33N 59°56' E 029°42'0 0.0
2016-May-23 15:33N 59°56' E 029°42'0 0.0
2016-May-23 14:33N 59°56' E 029°42'2 1.5
2016-May-23 13:06N 59°58' E 029°45'1 1.1
2016-May-23 12:33N 59°59' E 029°44'0 0.0
2016-May-23 11:33N 59°59' E 029°44'0 0.1
2016-May-23 10:30N 59°59' E 029°45'0 0.2
2016-May-23 09:33N 59°59' E 029°44'0 0.1
2016-May-23 08:33N 59°59' E 029°44'0 0.1
2016-May-23 07:29N 59°59' E 029°45'0 0.1
2016-May-23 06:33N 59°58' E 029°45'0 0.1
2016-May-23 05:33N 59°59' E 029°44'0 0.1
2016-May-23 04:34N 59°59' E 029°44'0 0.1
2016-May-23 03:29N 59°59' E 029°45'1 1.3
2016-May-23 02:33N 59°57' E 029°44'2 1.5
2016-May-23 01:33N 59°56' E 029°42'0 0.0
2016-May-23 00:33N 59°56' E 029°42'0 0.0
2016-May-22 23:33N 59°56' E 029°42'0 0.0
2016-May-22 22:32N 59°56' E 029°42'0 0.0
2016-May-22 21:33N 59°56' E 029°42'0 0.0
2016-May-22 20:33N 59°56' E 029°42'0 0.0
2016-May-22 19:33N 59°56' E 029°42'0 0.0
2016-May-22 18:34N 59°56' E 029°42'0 0.0
2016-May-22 17:33N 59°56' E 029°42'0 0.0
2016-May-22 16:33N 59°56' E 029°42'0 0.0
2016-May-22 15:33N 59°56' E 029°42'3 1.3
2016-May-22 13:33N 59°59' E 029°45'0 0.1
2016-May-22 12:33N 59°58' E 029°45'0 0.1
2016-May-22 11:32N 59°59' E 029°45'0 0.1
2016-May-22 10:33N 59°58' E 029°44'0 0.1
2016-May-22 09:30N 59°59' E 029°45'0 0.1
2016-May-22 08:33N 59°59' E 029°44'0 0.1
2016-May-22 07:33N 59°58' E 029°45'0 0.0
2016-May-22 06:33N 59°59' E 029°45'0 0.0
2016-May-22 05:28N 59°59' E 029°45'0 0.1
2016-May-22 04:22N 59°59' E 029°45'2 2.2
2016-May-22 03:33N 59°57' E 029°44'1 1.0
2016-May-22 02:33N 59°56' E 029°42'0 0.0
2016-May-22 01:33N 59°56' E 029°42'0 0.0
2016-May-22 00:33N 59°56' E 029°42'0 0.0
2016-May-21 23:33N 59°56' E 029°42'0 0.0
2016-May-21 22:33N 59°56' E 029°42'0 0.0
2016-May-21 21:33N 59°56' E 029°42'0 0.0
2016-May-21 20:33N 59°56' E 029°42'0 0.0
2016-May-21 19:33N 59°56' E 029°42'0 0.0
2016-May-21 18:33N 59°56' E 029°42'0 0.0
2016-May-21 17:33N 59°56' E 029°42'0 0.0
2016-May-21 16:33N 59°56' E 029°42'0 0.0
2016-May-21 15:33N 59°56' E 029°42'2 1.6
2016-May-21 14:18N 59°58' E 029°45'1 1.0
2016-May-21 13:33N 59°59' E 029°45'0 0.1
2016-May-21 12:33N 59°59' E 029°44'0 0.1
2016-May-21 11:33N 59°58' E 029°45'0 0.1
2016-May-21 10:19N 59°59' E 029°45'0 0.0
2016-May-21 09:20N 59°59' E 029°45'0 0.2
2016-May-21 08:24N 59°58' E 029°45'0 0.2
2016-May-21 07:33N 59°59' E 029°44'0 0.1
2016-May-21 06:31N 59°59' E 029°45'0 0.1
2016-May-21 05:31N 59°59' E 029°44'0 0.0
2016-May-21 04:25N 59°59' E 029°44'3 1.3
2016-May-21 02:25N 59°56' E 029°42'0 0.0
2016-May-21 01:33N 59°56' E 029°42'0 0.0
2016-May-21 00:33N 59°56' E 029°42'0 0.0
2016-May-20 23:33N 59°56' E 029°42'0 0.0
2016-May-20 22:33N 59°56' E 029°42'0 0.0
2016-May-20 21:33N 59°56' E 029°42'0 0.0
2016-May-20 20:33N 59°56' E 029°42'0 0.0
2016-May-20 19:33N 59°56' E 029°42'0 0.0
2016-May-20 18:33N 59°56' E 029°42'0 0.0
2016-May-20 17:33N 59°56' E 029°42'0 0.0
2016-May-20 16:33N 59°56' E 029°42'0 0.0
2016-May-20 15:33N 59°56' E 029°42'2 1.6
2016-May-20 14:15N 59°58' E 029°45'1 0.9
2016-May-20 13:26N 59°59' E 029°44'0 0.2
2016-May-20 12:33N 59°58' E 029°45'0 0.0
2016-May-20 11:33N 59°58' E 029°45'0 0.1
2016-May-20 10:33N 59°58' E 029°45'0 0.1
2016-May-20 09:32N 59°59' E 029°44'0 0.0
2016-May-20 08:27N 59°59' E 029°45'0 0.1
2016-May-20 07:29N 59°59' E 029°44'0 0.1
2016-May-20 06:33N 59°58' E 029°45'0 0.1
2016-May-20 05:29N 59°59' E 029°45'0 0.1
2016-May-20 04:33N 59°59' E 029°44'2 1.8
2016-May-20 03:33N 59°57' E 029°44'1 0.8
2016-May-20 02:34N 59°56' E 029°42'0 0.0
2016-May-20 01:33N 59°56' E 029°42'0 0.0
2016-May-20 00:33N 59°56' E 029°42'0 0.0
2016-May-19 23:33N 59°56' E 029°42'0 0.0
2016-May-19 22:33N 59°56' E 029°42'0 0.0
2016-May-19 21:33N 59°56' E 029°42'0 0.0
2016-May-19 20:33N 59°56' E 029°42'0 0.0
2016-May-19 19:33N 59°56' E 029°42'0 0.0
2016-May-19 18:33N 59°56' E 029°42'0 0.0
2016-May-19 17:33N 59°56' E 029°42'0 0.0
2016-May-19 16:33N 59°56' E 029°42'0 0.0
2016-May-19 15:33N 59°56' E 029°42'3 1.3
2016-May-19 13:29N 59°59' E 029°44'0 0.1
2016-May-19 12:31N 59°59' E 029°44'0 0.1
2016-May-19 11:23N 59°59' E 029°44'0 0.1
2016-May-19 10:33N 59°59' E 029°44'0 0.1
2016-May-19 09:33N 59°58' E 029°45'0 0.2
2016-May-19 08:19N 59°59' E 029°45'0 0.0
2016-May-19 06:06N 59°59' E 029°45'0 0.1
2016-May-19 04:32N 59°59' E 029°44'2 1.5
2016-May-19 03:33N 59°57' E 029°44'1 1.1
2016-May-19 02:33N 59°56' E 029°42'0 0.0
2016-May-19 01:33N 59°56' E 029°42'0 0.0
2016-May-19 00:33N 59°56' E 029°42'0 0.0
2016-May-18 23:33N 59°56' E 029°42'0 0.0
2016-May-18 22:32N 59°56' E 029°42'0 0.0
2016-May-18 21:33N 59°56' E 029°42'3 1.3
2016-May-18 19:33N 59°59' E 029°44'1 0.4
2016-May-18 18:16N 59°59' E 029°43'0 0.0
2016-May-18 17:33N 59°59' E 029°43'2 2.0
2016-May-18 16:33N 59°57' E 029°44'1 1.1
2016-May-18 15:33N 59°56' E 029°42'2 1.2
2016-May-18 13:33N 59°58' E 029°45'0 0.1
2016-May-18 12:32N 59°59' E 029°45'0 0.1
2016-May-18 11:33N 59°59' E 029°44'0 0.0
2016-May-18 10:33N 59°59' E 029°45'0 0.0
2016-May-18 09:33N 59°59' E 029°45'0 0.1
2016-May-18 08:29N 59°59' E 029°45'0 0.1
2016-May-18 07:31N 59°59' E 029°44'0 0.1
2016-May-18 06:33N 59°59' E 029°44'0 0.1
2016-May-18 05:33N 59°58' E 029°45'0 0.0
2016-May-18 04:32N 59°58' E 029°45'1 1.5
2016-May-18 03:33N 59°57' E 029°44'1 1.2
2016-May-18 02:32N 59°56' E 029°42'0 0.0
2016-May-18 01:33N 59°56' E 029°42'0 0.0
2016-May-18 00:33N 59°56' E 029°42'0 0.0
2016-May-17 23:33N 59°56' E 029°42'0 0.0
2016-May-17 22:33N 59°56' E 029°42'0 0.0
2016-May-17 21:33N 59°56' E 029°42'0 0.0
2016-May-17 20:33N 59°56' E 029°42'0 0.0
2016-May-17 19:32N 59°56' E 029°42'0 0.0
2016-May-17 18:33N 59°56' E 029°42'0 0.0
2016-May-17 17:33N 59°56' E 029°42'0 0.0
2016-May-17 16:33N 59°56' E 029°42'0 0.0
2016-May-17 15:33N 59°56' E 029°42'2 1.3
2016-May-17 14:04N 59°58' E 029°45'1 1.4
2016-May-17 13:30N 59°59' E 029°44'0 0.0
2016-May-17 12:21N 59°59' E 029°45'0 0.1
2016-May-17 11:29N 59°59' E 029°44'0 0.0
2016-May-17 10:33N 59°59' E 029°45'0 0.1
2016-May-17 09:33N 59°59' E 029°45'0 0.1
2016-May-17 08:21N 59°59' E 029°44'0 0.1
2016-May-17 07:33N 59°59' E 029°45'0 0.0
2016-May-17 06:33N 59°59' E 029°45'0 0.1
2016-May-17 05:30N 59°58' E 029°45'0 0.2
2016-May-17 04:26N 59°59' E 029°44'2 2.0
2016-May-17 03:33N 59°57' E 029°44'1 0.9
2016-May-17 02:31N 59°56' E 029°42'0 0.0
2016-May-17 01:33N 59°56' E 029°42'0 0.0
2016-May-17 00:32N 59°56' E 029°42'0 0.0
2016-May-16 23:32N 59°56' E 029°42'0 0.0
2016-May-16 22:33N 59°56' E 029°42'0 0.0
2016-May-16 21:33N 59°56' E 029°42'0 0.0
2016-May-16 20:33N 59°56' E 029°42'0 0.0
2016-May-16 19:33N 59°56' E 029°42'0 0.0
2016-May-16 18:32N 59°56' E 029°42'0 0.0
2016-May-16 17:33N 59°56' E 029°42'0 0.0
2016-May-16 16:33N 59°56' E 029°42'0 0.0
2016-May-16 15:33N 59°56' E 029°42'0 0.0
2016-May-16 14:33N 59°56' E 029°42'2 1.4
2016-May-16 13:03N 59°58' E 029°45'0 1.0
2016-May-16 12:33N 59°58' E 029°45'0 0.0
2016-May-16 11:32N 59°58' E 029°45'0 0.0
2016-May-16 09:33N 59°58' E 029°45'0 0.1
2016-May-16 08:29N 59°59' E 029°44'0 0.1
2016-May-16 07:22N 59°59' E 029°45'0 0.1
2016-May-16 06:33N 59°59' E 029°44'0 0.0
2016-May-16 05:33N 59°59' E 029°44'0 0.1
2016-May-16 04:29N 59°59' E 029°45'0 0.1
2016-May-16 03:31N 59°58' E 029°45'1 1.2
2016-May-16 02:33N 59°57' E 029°44'1 1.3
2016-May-16 01:32N 59°56' E 029°42'0 0.0
2016-May-16 00:33N 59°56' E 029°42'0 0.0
2016-May-15 23:33N 59°56' E 029°42'0 0.0
2016-May-15 22:33N 59°56' E 029°42'0 0.0
2016-May-15 21:31N 59°56' E 029°42'0 0.0
2016-May-15 20:33N 59°56' E 029°42'0 0.0
2016-May-15 19:33N 59°56' E 029°42'0 0.0
2016-May-15 18:29N 59°56' E 029°42'0 0.0
2016-May-15 17:33N 59°56' E 029°42'0 0.0
2016-May-15 16:32N 59°56' E 029°42'0 0.0
2016-May-15 15:33N 59°56' E 029°42'0 0.0
2016-May-15 14:33N 59°56' E 029°42'2 1.5
2016-May-15 13:15N 59°58' E 029°45'1 1.2
2016-May-15 12:31N 59°59' E 029°45'0 0.1
2016-May-15 11:31N 59°59' E 029°44'0 0.2
2016-May-15 10:33N 59°59' E 029°45'0 0.3
2016-May-15 09:30N 59°59' E 029°44'0 0.3
2016-May-15 08:33N 59°59' E 029°44'0 0.1
2016-May-15 07:33N 59°58' E 029°45'0 0.0
2016-May-15 06:33N 59°58' E 029°45'0 0.1
2016-May-15 05:33N 59°59' E 029°45'0 0.0
2016-May-15 04:32N 59°59' E 029°44'0 0.0
2016-May-15 03:30N 59°59' E 029°44'1 1.5
2016-May-15 02:33N 59°57' E 029°44'1 1.3
2016-May-15 01:33N 59°56' E 029°42'0 0.0
2016-May-15 00:33N 59°56' E 029°42'0 0.0
2016-May-14 23:33N 59°56' E 029°42'0 0.0
2016-May-14 22:33N 59°56' E 029°42'0 0.0
2016-May-14 21:33N 59°56' E 029°42'0 0.0
2016-May-14 20:33N 59°56' E 029°42'0 0.0
2016-May-14 19:33N 59°56' E 029°42'0 0.0
2016-May-14 18:33N 59°56' E 029°42'0 0.0
2016-May-14 17:33N 59°56' E 029°42'0 0.0
2016-May-14 16:33N 59°56' E 029°42'0 0.0
2016-May-14 15:32N 59°56' E 029°42'0 0.0
2016-May-14 14:32N 59°56' E 029°42'3 1.3
2016-May-14 12:33N 59°59' E 029°45'0 0.1
2016-May-14 11:33N 59°59' E 029°45'0 0.0
2016-May-14 10:33N 59°59' E 029°44'0 0.1
2016-May-14 09:19N 59°58' E 029°45'0 0.1
2016-May-14 08:21N 59°59' E 029°45'  

Dump ship's entire track history